createdAt,value
2022-09-01T00:06:22.631Z,16.5
2022-09-01T00:16:23.486Z,16.4
2022-09-01T00:36:24.765Z,16.2
2022-09-01T00:46:26.749Z,16.1
2022-09-01T00:56:25.740Z,16.1
2022-09-01T01:16:26.246Z,15.4
2022-09-01T01:26:26.630Z,15.2
2022-09-01T01:36:27.270Z,15.1
2022-09-01T01:46:27.329Z,15.1
2022-09-01T01:56:27.860Z,15
2022-09-01T02:06:28.672Z,15
2022-09-01T02:16:28.923Z,14.9
2022-09-01T02:26:29.019Z,14.9
2022-09-01T02:36:29.084Z,14.7
2022-09-01T02:46:29.121Z,14.5
2022-09-01T02:56:29.889Z,14.5
2022-09-01T03:06:30.146Z,14.4
2022-09-01T03:26:31.544Z,14.2
2022-09-01T03:36:31.849Z,14.3
2022-09-01T03:46:35.807Z,14.3
2022-09-01T03:56:33.051Z,14.2
2022-09-01T04:06:33.813Z,14.3
2022-09-01T04:16:34.795Z,14.1
2022-09-01T04:26:35.050Z,13.9
2022-09-01T04:36:35.165Z,13.8
2022-09-01T04:46:35.575Z,13.7
2022-09-01T04:56:35.889Z,13.8
2022-09-01T05:06:35.959Z,14
2022-09-01T05:36:38.070Z,14.3
2022-09-01T05:46:38.868Z,14.4
2022-09-01T05:56:43.223Z,14.6
2022-09-01T06:06:55.142Z,14.7
2022-09-01T06:16:41.072Z,14.9
2022-09-01T06:26:41.997Z,15.2
2022-09-01T06:36:42.003Z,15.3
2022-09-01T06:46:43.026Z,15.6
2022-09-01T06:56:44.674Z,15.8
2022-09-01T07:06:59.636Z,16.1
2022-09-01T07:16:51.238Z,16.6
2022-09-01T07:26:47.109Z,17.2
2022-09-01T07:38:03.290Z,17.7
2022-09-01T07:46:46.327Z,18.2
2022-09-01T07:56:46.818Z,18.7
2022-09-01T08:06:46.957Z,19.4
2022-09-01T08:16:52.453Z,19.9
2022-09-01T08:26:47.994Z,20.6
2022-09-01T08:36:48.070Z,21.2
2022-09-01T08:46:48.201Z,21.5
2022-09-01T08:56:48.334Z,21.8
2022-09-01T09:06:48.586Z,22.2
2022-09-01T09:16:51.506Z,22.6
2022-09-01T09:36:54.557Z,22.9
2022-09-01T09:46:50.885Z,23.2
2022-09-01T09:56:51.742Z,23.3
2022-09-01T10:06:51.850Z,23.5
2022-09-01T10:16:52.853Z,23.5
2022-09-01T10:26:53.586Z,24
2022-09-01T10:46:59.822Z,23.7
2022-09-01T10:56:55.011Z,23.5
2022-09-01T11:07:12.864Z,24.3
2022-09-01T11:16:56.518Z,24.8
2022-09-01T11:26:57.233Z,24.9
2022-09-01T11:36:57.612Z,25.1
2022-09-01T11:46:58.041Z,25.9
2022-09-01T11:56:59.063Z,25.4
2022-09-01T12:06:59.433Z,25.5
2022-09-01T12:16:59.615Z,25.9
2022-09-01T12:26:59.744Z,25.9
2022-09-01T12:37:00.659Z,25.3
2022-09-01T12:47:00.755Z,25.6
2022-09-01T12:57:00.979Z,26.1
2022-09-01T13:07:01.243Z,26.3
2022-09-01T13:17:01.351Z,26.1
2022-09-01T13:27:23.553Z,26.3
2022-09-01T13:37:03.007Z,26.4
2022-09-01T13:47:29.686Z,25.5
2022-09-01T13:57:04.463Z,25.5
2022-09-01T14:07:05.027Z,25.1
2022-09-01T14:17:05.335Z,25.1
2022-09-01T14:27:05.961Z,25.1
2022-09-01T14:37:07.000Z,25.3
2022-09-01T14:47:07.770Z,25.1
2022-09-01T14:57:37.335Z,25
2022-09-01T15:27:10.420Z,24.8
2022-09-01T15:37:10.857Z,24.7
2022-09-01T15:57:12.174Z,24.7
2022-09-01T16:07:12.656Z,24.5
2022-09-01T16:37:14.793Z,24.3
2022-09-01T16:47:15.288Z,24.4
2022-09-01T16:57:16.002Z,24.2
2022-09-01T17:07:16.048Z,24
2022-09-01T17:27:16.735Z,23.6
2022-09-01T17:37:17.040Z,23.6
2022-09-01T17:47:17.484Z,23.3
2022-09-01T18:27:19.148Z,22.3
2022-09-01T18:47:20.408Z,21.7
2022-09-01T18:57:21.381Z,21.3
2022-09-01T19:07:21.610Z,20.9
2022-09-01T19:17:22.430Z,20.6
2022-09-01T19:27:23.206Z,20.3
2022-09-01T19:37:23.718Z,20
2022-09-01T19:47:24.057Z,19.9
2022-09-01T19:57:25.011Z,19.6
2022-09-01T20:07:25.348Z,19.4
2022-09-01T20:17:26.347Z,19.2
2022-09-01T20:27:26.577Z,19
2022-09-01T20:47:27.058Z,18.5
2022-09-01T21:07:31.113Z,18.1
2022-09-01T21:17:29.255Z,17.8
2022-09-01T21:27:29.538Z,17.7
2022-09-01T21:37:29.993Z,17.5
2022-09-01T21:57:31.193Z,17.1
2022-09-01T22:07:31.701Z,16.9
2022-09-01T22:17:32.607Z,16.7
2022-09-01T22:27:32.840Z,16.6
2022-09-01T22:37:33.099Z,16.4
2022-09-01T22:47:35.273Z,16.3
2022-09-01T22:57:33.997Z,16.3
2022-09-01T23:07:34.916Z,16.2
2022-09-01T23:17:35.473Z,16.2
2022-09-01T23:27:35.695Z,16.2
2022-09-01T23:37:36.590Z,16.1
2022-09-01T23:47:36.766Z,16
2022-09-01T23:57:36.938Z,15.9
